Dole Caribbean — C6CA4 — position and weather

sailwx.info

Track history (hours):
 
Tides and Currents Weather Stations Pressure Air Temp Water Temp Dewpoint Dewpoint Depression Visibility Wind Speed Wind Dir Waves Ship Positions

Dole Caribbean

Last reported at 2018-Jun-13 19:06 UTC. Time now 2018-Jun-25 00:29 UTC.
Position N 27°39' W 115°37'.
Warning: this ship's position is 11 days out of date.

Length 190 m; draft 9.1 m.

Type: Cargo ship. MMSI: 311000416.

Date/timePositionNaut miles runAvg speedWind from/ knotsBaromVisibWave heightAir tempDewpointWater temp
2018-Jun-13 19:06N 27°39' W 115°37'218.2
2018-Jun-13 19:00N 27°41' W 115°38'2118.3
2018-Jun-13 17:51N 28°01' W 115°45'618.5
2018-Jun-13 17:30N 28°07' W 115°47'1418.8
2018-Jun-13 16:47N 28°20' W 115°52'1718.8
2018-Jun-13 15:54N 28°36' W 115°58'718.7
2018-Jun-13 15:30N 28°43' W 116°00'1318.6
2018-Jun-13 14:48N 28°55' W 116°05'718.6
2018-Jun-13 14:26N 29°02' W 116°07'4018.4
2018-Jun-13 12:14N 29°40' W 116°22'418.6
2018-Jun-13 12:00N 29°44' W 116°24'918.5
2018-Jun-13 11:30N 29°53' W 116°27'1019.0
2018-Jun-13 10:59N 30°02' W 116°31'11818.8
2018-Jun-13 04:41N 31°55' W 117°14'318.2
2018-Jun-13 04:30N 31°58' W 117°15'1518.3
2018-Jun-13 03:40N 32°12' W 117°21'318.6
2018-Jun-13 03:30N 32°15' W 117°22'714.8
2018-Jun-13 03:00N 32°23' W 117°23'611.8
2018-Jun-13 02:30N 32°28' W 117°20'611.7
2018-Jun-13 02:00N 32°33' W 117°17'611.6
2018-Jun-13 01:30N 32°38' W 117°14'5 9.5
2018-Jun-13 00:58N 32°43' W 117°12'3 4.0
2018-Jun-13 00:16N 32°42' W 117°09'0 0.0
2018-Jun-12 23:31N 32°42' W 117°09'0 0.0
2018-Jun-12 23:28N 32°42' W 117°09'0 0.0
2018-Jun-12 22:52N 32°42' W 117°09'0 0.0
2018-Jun-12 22:29N 32°42' W 117°09'0 0.0
2018-Jun-12 21:55N 32°42' W 117°09'0 0.0
2018-Jun-12 21:25N 32°42' W 117°09'0 0.0
2018-Jun-12 20:58N 32°42' W 117°09'0 0.0
2018-Jun-12 20:25N 32°42' W 117°09'0 0.0
2018-Jun-12 19:49N 32°42' W 117°09'0 0.0
2018-Jun-12 16:49N 32°42' W 117°09'0 0.0
2018-Jun-12 12:10N 32°42' W 117°09'0 0.0
2018-Jun-12 11:13N 32°42' W 117°09'0 0.0
2018-Jun-12 10:58N 32°42' W 117°09'0 0.0
2018-Jun-12 10:25N 32°42' W 117°09'0 0.0
2018-Jun-12 09:58N 32°42' W 117°09'0 0.0
2018-Jun-12 09:13N 32°42' W 117°09'0 0.0
2018-Jun-12 08:55N 32°42' W 117°09'0 0.0
2018-Jun-12 08:22N 32°42' W 117°09'0 0.0
2018-Jun-12 07:52N 32°42' W 117°09'0 0.0
2018-Jun-12 07:25N 32°42' W 117°09'0 0.0
2018-Jun-12 05:55N 32°42' W 117°09'0 0.0
2018-Jun-12 05:28N 32°42' W 117°09'0 0.0
2018-Jun-12 04:58N 32°42' W 117°09'0 0.0
2018-Jun-12 04:28N 32°42' W 117°09'0 0.0
2018-Jun-12 00:22N 32°42' W 117°09'0 0.0
2018-Jun-11 23:55N 32°42' W 117°09'0 0.0
2018-Jun-11 23:22N 32°42' W 117°09'0 0.0
2018-Jun-11 13:16N 32°42' W 117°09'0 0.0
2018-Jun-11 06:10N 32°42' W 117°09'0 0.0
2018-Jun-11 05:58N 32°42' W 117°09'4 0.2
2018-Jun-10 11:56N 32°40' W 117°14'22 8.8
2018-Jun-10 09:28N 32°20' W 117°24'3515.5
2018-Jun-10 07:11N 31°46' W 117°11'4416.0
2018-Jun-10 04:27N 31°05' W 116°55'5516.5
2018-Jun-10 01:06N 30°13' W 116°35'216.6
2018-Jun-10 01:00N 30°11' W 116°34'816.5
2018-Jun-10 00:30N 30°03' W 116°31'3416.4
2018-Jun-09 22:24N 29°30' W 116°18'616.4
2018-Jun-09 22:00N 29°24' W 116°16'816.5
2018-Jun-09 21:30N 29°17' W 116°13'816.5
2018-Jun-09 21:00N 29°08' W 116°10'816.5
2018-Jun-09 20:29N 29°01' W 116°07'816.4
2018-Jun-09 20:00N 28°53' W 116°04'916.5
2018-Jun-09 19:29N 28°45' W 116°01'816.4
2018-Jun-09 19:00N 28°37' W 115°58'816.6
2018-Jun-09 18:30N 28°29' W 115°55'1016.5
2018-Jun-09 17:54N 28°20' W 115°52'716.2
2018-Jun-09 17:29N 28°14' W 115°49'816.6
2018-Jun-09 17:00N 28°07' W 115°44'816.5
2018-Jun-09 16:30N 28°01' W 115°38'916.5
2018-Jun-09 15:58N 27°54' W 115°32'1616.4
2018-Jun-09 15:00N 27°41' W 115°22'816.5
2018-Jun-09 14:30N 27°34' W 115°16'916.8
2018-Jun-09 13:59N 27°27' W 115°11'816.7
2018-Jun-09 13:30N 27°20' W 115°05'1416.6
2018-Jun-09 12:40N 27°09' W 114°56'716.6
2018-Jun-09 12:16N 27°04' W 114°52'516.8
2018-Jun-09 11:59N 26°60' W 114°49'816.7
2018-Jun-09 11:30N 26°53' W 114°43'  
Track history (hours):
 
Tides and Currents Weather Stations Pressure Air Temp Water Temp Dewpoint Dewpoint Depression Visibility Wind Speed Wind Dir Waves Ship Positions

Dole Caribbean

Last reported at 2018-Jun-13 19:06 UTC. Time now 2018-Jun-25 00:29 UTC.
Position N 27°39' W 115°37'.
Warning: this ship's position is 11 days out of date.

Length 190 m; draft 9.1 m.

Type: Cargo ship. MMSI: 311000416.

Date/timePositionNaut miles runAvg speedWind from/ knotsBaromVisibWave heightAir tempDewpointWater temp
2018-Jun-13 19:06N 27°39' W 115°37'218.2
2018-Jun-13 19:00N 27°41' W 115°38'2118.3
2018-Jun-13 17:51N 28°01' W 115°45'618.5
2018-Jun-13 17:30N 28°07' W 115°47'1418.8
2018-Jun-13 16:47N 28°20' W 115°52'1718.8
2018-Jun-13 15:54N 28°36' W 115°58'718.7
2018-Jun-13 15:30N 28°43' W 116°00'1318.6
2018-Jun-13 14:48N 28°55' W 116°05'718.6
2018-Jun-13 14:26N 29°02' W 116°07'4018.4
2018-Jun-13 12:14N 29°40' W 116°22'418.6
2018-Jun-13 12:00N 29°44' W 116°24'918.5
2018-Jun-13 11:30N 29°53' W 116°27'1019.0
2018-Jun-13 10:59N 30°02' W 116°31'11818.8
2018-Jun-13 04:41N 31°55' W 117°14'318.2
2018-Jun-13 04:30N 31°58' W 117°15'1518.3
2018-Jun-13 03:40N 32°12' W 117°21'318.6
2018-Jun-13 03:30N 32°15' W 117°22'714.8
2018-Jun-13 03:00N 32°23' W 117°23'611.8
2018-Jun-13 02:30N 32°28' W 117°20'611.7
2018-Jun-13 02:00N 32°33' W 117°17'611.6
2018-Jun-13 01:30N 32°38' W 117°14'5 9.5
2018-Jun-13 00:58N 32°43' W 117°12'3 4.0
2018-Jun-13 00:16N 32°42' W 117°09'0 0.0
2018-Jun-12 23:31N 32°42' W 117°09'0 0.0
2018-Jun-12 23:28N 32°42' W 117°09'0 0.0
2018-Jun-12 22:52N 32°42' W 117°09'0 0.0
2018-Jun-12 22:29N 32°42' W 117°09'0 0.0
2018-Jun-12 21:55N 32°42' W 117°09'0 0.0
2018-Jun-12 21:25N 32°42' W 117°09'0 0.0
2018-Jun-12 20:58N 32°42' W 117°09'0 0.0
2018-Jun-12 20:25N 32°42' W 117°09'0 0.0
2018-Jun-12 19:49N 32°42' W 117°09'0 0.0
2018-Jun-12 16:49N 32°42' W 117°09'0 0.0
2018-Jun-12 12:10N 32°42' W 117°09'0 0.0
2018-Jun-12 11:13N 32°42' W 117°09'0 0.0
2018-Jun-12 10:58N 32°42' W 117°09'0 0.0
2018-Jun-12 10:25N 32°42' W 117°09'0 0.0
2018-Jun-12 09:58N 32°42' W 117°09'0 0.0
2018-Jun-12 09:13N 32°42' W 117°09'0 0.0
2018-Jun-12 08:55N 32°42' W 117°09'0 0.0
2018-Jun-12 08:22N 32°42' W 117°09'0 0.0
2018-Jun-12 07:52N 32°42' W 117°09'0 0.0
2018-Jun-12 07:25N 32°42' W 117°09'0 0.0
2018-Jun-12 05:55N 32°42' W 117°09'0 0.0
2018-Jun-12 05:28N 32°42' W 117°09'0 0.0
2018-Jun-12 04:58N 32°42' W 117°09'0 0.0
2018-Jun-12 04:28N 32°42' W 117°09'0 0.0
2018-Jun-12 00:22N 32°42' W 117°09'0 0.0
2018-Jun-11 23:55N 32°42' W 117°09'0 0.0
2018-Jun-11 23:22N 32°42' W 117°09'0 0.0
2018-Jun-11 13:16N 32°42' W 117°09'0 0.0
2018-Jun-11 06:10N 32°42' W 117°09'0 0.0
2018-Jun-11 05:58N 32°42' W 117°09'4 0.2
2018-Jun-10 11:56N 32°40' W 117°14'22 8.8
2018-Jun-10 09:28N 32°20' W 117°24'3515.5
2018-Jun-10 07:11N 31°46' W 117°11'4416.0
2018-Jun-10 04:27N 31°05' W 116°55'5516.5
2018-Jun-10 01:06N 30°13' W 116°35'216.6
2018-Jun-10 01:00N 30°11' W 116°34'816.5
2018-Jun-10 00:30N 30°03' W 116°31'3416.4
2018-Jun-09 22:24N 29°30' W 116°18'616.4
2018-Jun-09 22:00N 29°24' W 116°16'816.5
2018-Jun-09 21:30N 29°17' W 116°13'816.5
2018-Jun-09 21:00N 29°08' W 116°10'816.5
2018-Jun-09 20:29N 29°01' W 116°07'816.4
2018-Jun-09 20:00N 28°53' W 116°04'916.5
2018-Jun-09 19:29N 28°45' W 116°01'816.4
2018-Jun-09 19:00N 28°37' W 115°58'816.6
2018-Jun-09 18:30N 28°29' W 115°55'1016.5
2018-Jun-09 17:54N 28°20' W 115°52'716.2
2018-Jun-09 17:29N 28°14' W 115°49'816.6
2018-Jun-09 17:00N 28°07' W 115°44'816.5
2018-Jun-09 16:30N 28°01' W 115°38'916.5
2018-Jun-09 15:58N 27°54' W 115°32'1616.4
2018-Jun-09 15:00N 27°41' W 115°22'816.5
2018-Jun-09 14:30N 27°34' W 115°16'916.8
2018-Jun-09 13:59N 27°27' W 115°11'816.7
2018-Jun-09 13:30N 27°20' W 115°05'1416.6
2018-Jun-09 12:40N 27°09' W 114°56'716.6
2018-Jun-09 12:16N 27°04' W 114°52'516.8
2018-Jun-09 11:59N 26°60' W 114°49'816.7
2018-Jun-09 11:30N 26°53' W 114°43'  

Dump ship's entire track history